Current Weather

Heathrow

London, United Kingdom (EGLL)

Report from: Friday, July 12, 2024 11:50 PM BST
Current time: Saturday, July 13, 2024 12:29 AM BST

Nearby weather – Weather history – Daily summaries
Weather forecast

Temperature14.0°C (57.2°F)
Dew point7.0°C (44.6°F)
Winds 5 kts (2.6 m/s, 5.8 mph) Vrb
Winds variableWinds variable from North (359.999999°) to East-Northeast (60°)
Visibility6.2 mi. (10 km)
Clouds Ceiling: Broken clouds 3,300 ft. (1,006 m)
Altimeter30.00 in.Hg (1016 mB)
Relative humidity63 %
Density altitude-67 ft. (-20 m)
Remarks Fully automated report
No significant changes expected in the next two hours
Flight conditions Visual Meteorological Conditions
Raw dataEGLL 122250Z AUTO 04005KT 360V060 9999 BKN033 14/07 Q1016 NOSIG
An unhandled exception has occurred. See browser dev tools for details. Reload 🗙